Duluth, MN

5:19 AM CDT on June 28, 2017 (GMT -0500)
| | Change Station
Active Advisory: Beach Hazard Statement

Elev -9999 ft 0.00 °N, 0.00 °E | Updated 4 minutes ago

Mostly Cloudy
Mostly Cloudy
°F
Feels Like °F
N
Wind Variable Wind from North
Gusts mph

Today
High -- | Low -- °F
--% Chance of Precip.
Yesterday
High -- | Low -- °F
Precip. -- in
Pressure 29.73 in
Visibility 10.0 miles
Clouds Few 4000 ft
Few 12000 ft
Dew Point Not available.
Humidity Not available.
Rainfall --
Snow Depth Not available.
5:16 AM 9:06 PM
Waxing Crescent, 24% visible
METAR KDLH 280955Z 15007KT 10SM FEW040 FEW120 14/08 A2973 RMK AO2 SLP066 T01440083
Pressure 29.73 in
Visibility 10.0 miles
Clouds Few 4000 ft
Few 12000 ft
Dew Point Not available.
Humidity Not available.
Rainfall --
Snow Depth Not available.
5:16 AM 9:06 PM
Waxing Crescent, 24% visible
METAR KDLH 280955Z 15007KT 10SM FEW040 FEW120 14/08 A2973 RMK AO2 SLP066 T01440083

Get Your Daily Forecast Email!

Thanks for signing up!

Be on the lookout for a verification email in your inbox.

You'll start receiving severe weather alerts in your inbox..

×

10-Day Weather Forecast

Almanac

Astronomy

Jun. 28, 2017 Rise Set
Actual Time
Civil Twilight
Nautical Twilight
Astronomical Twilight
Moon
Length of Visible Light
Length of Day
Tomorrow will be .
, % of the Moon is Illuminated

Today's Extremes

State Highs State Lows

Community

WunderPhotos

Category 6

Welcome to Category 6. This is the collective home for Weather Underground's featured writeups by Dr. Jeff Masters (right), Bob Henson (left), Chris Burt, and other regular contributors.

Nearby

Air Quality

  Air Quality AQ Index Pollutant
Not available.

Snow Depth

Station Depth Elevation

Earthquake Activity

City Distance Mag. Time & Date
Minimum magnitude displayed is 2.5.

Coastal Water Temperatures

Place Temperature

Stations

Nearby Weather Stations

Station Location Temp. Windchill Dew Point Humidity Wind Precip. Elev Updated Type
                   

Watches & Warnings

Beach Hazard Statement
Issued: 4:03 AM CDT Jun. 28, 2017 – National Weather Service

... Beach hazards statement in effect through this evening...

The National Weather Service in Duluth has issued a beach hazards
statement for dangerous swimming conditions, which is in effect through
this evening.

* Location... Park Point beach

* dangerous swimming conditions are expected along the Lake
Superior shoreline due to high wave action and strong rip
currents.

* High wave action alone can make swimming difficult on days
such as this. Incoming waves in rapid succession can tire a
swimmer quickly.

Precautionary/preparedness actions...

Rip currents are powerful channels of water flowing quickly away
from shore... which occur most often at low spots in sandbars...
near shoreline structures such as peninsulas or breakwalls... and
near river mouths.

For additional safety information and precautions... please visit
www.Weather.Gov/Duluth


Stewart